sensor_id;sensor_type;location;lat;lon;timestamp;P1;durP1;ratioP1;P2;durP2;ratioP2
11287;SDS011;5700;50.996;7.044;2023-03-04T00:00:28;43.97;;;17.17;;
11287;SDS011;5700;50.996;7.044;2023-03-04T00:03:30;46.90;;;17.83;;
11287;SDS011;5700;50.996;7.044;2023-03-04T00:06:31;42.28;;;17.23;;
11287;SDS011;5700;50.996;7.044;2023-03-04T00:09:32;42.35;;;18.55;;
11287;SDS011;5700;50.996;7.044;2023-03-04T00:12:34;50.33;;;20.13;;
11287;SDS011;5700;50.996;7.044;2023-03-04T00:15:37;46.38;;;18.77;;
11287;SDS011;5700;50.996;7.044;2023-03-04T00:18:38;44.53;;;17.73;;
11287;SDS011;5700;50.996;7.044;2023-03-04T00:21:39;50.05;;;19.05;;
11287;SDS011;5700;50.996;7.044;2023-03-04T00:24:41;48.70;;;20.40;;
11287;SDS011;5700;50.996;7.044;2023-03-04T00:27:42;47.65;;;19.48;;
11287;SDS011;5700;50.996;7.044;2023-03-04T00:30:45;47.75;;;20.58;;
11287;SDS011;5700;50.996;7.044;2023-03-04T00:33:46;48.35;;;20.00;;
11287;SDS011;5700;50.996;7.044;2023-03-04T00:36:48;44.38;;;18.35;;
11287;SDS011;5700;50.996;7.044;2023-03-04T00:39:49;45.83;;;18.85;;
11287;SDS011;5700;50.996;7.044;2023-03-04T00:42:51;40.65;;;17.40;;
11287;SDS011;5700;50.996;7.044;2023-03-04T00:45:54;61.28;;;20.58;;
11287;SDS011;5700;50.996;7.044;2023-03-04T00:48:55;53.65;;;19.25;;
11287;SDS011;5700;50.996;7.044;2023-03-04T00:51:56;45.05;;;18.52;;
11287;SDS011;5700;50.996;7.044;2023-03-04T00:54:58;41.95;;;17.55;;
11287;SDS011;5700;50.996;7.044;2023-03-04T00:57:59;49.55;;;18.05;;
11287;SDS011;5700;50.996;7.044;2023-03-04T01:01:02;51.53;;;20.67;;
11287;SDS011;5700;50.996;7.044;2023-03-04T01:04:03;53.85;;;20.30;;
11287;SDS011;5700;50.996;7.044;2023-03-04T01:07:05;49.92;;;18.83;;
11287;SDS011;5700;50.996;7.044;2023-03-04T01:10:07;53.25;;;20.67;;
11287;SDS011;5700;50.996;7.044;2023-03-04T01:13:09;46.67;;;19.88;;
11287;SDS011;5700;50.996;7.044;2023-03-04T01:16:12;52.55;;;19.35;;
11287;SDS011;5700;50.996;7.044;2023-03-04T01:19:14;52.42;;;20.73;;
11287;SDS011;5700;50.996;7.044;2023-03-04T01:22:15;50.30;;;20.67;;
11287;SDS011;5700;50.996;7.044;2023-03-04T01:25:18;54.88;;;22.02;;
11287;SDS011;5700;50.996;7.044;2023-03-04T01:28:19;51.95;;;20.80;;
11287;SDS011;5700;50.996;7.044;2023-03-04T01:31:22;53.47;;;20.80;;
11287;SDS011;5700;50.996;7.044;2023-03-04T01:34:23;52.15;;;21.90;;
11287;SDS011;5700;50.996;7.044;2023-03-04T01:37:25;61.42;;;21.58;;
11287;SDS011;5700;50.996;7.044;2023-03-04T01:40:26;54.67;;;22.02;;
11287;SDS011;5700;50.996;7.044;2023-03-04T01:43:29;60.47;;;22.95;;
11287;SDS011;5700;50.996;7.044;2023-03-04T01:46:32;54.80;;;21.25;;
11287;SDS011;5700;50.996;7.044;2023-03-04T01:49:33;57.17;;;21.92;;
11287;SDS011;5700;50.996;7.044;2023-03-04T01:52:41;55.15;;;21.88;;
11287;SDS011;5700;50.996;7.044;2023-03-04T01:55:43;62.42;;;25.17;;
11287;SDS011;5700;50.996;7.044;2023-03-04T01:58:44;49.65;;;21.40;;
11287;SDS011;5700;50.996;7.044;2023-03-04T02:01:48;61.35;;;21.77;;
11287;SDS011;5700;50.996;7.044;2023-03-04T02:04:50;53.92;;;19.90;;
11287;SDS011;5700;50.996;7.044;2023-03-04T02:07:51;61.58;;;23.73;;
11287;SDS011;5700;50.996;7.044;2023-03-04T02:10:53;64.40;;;22.30;;
11287;SDS011;5700;50.996;7.044;2023-03-04T02:13:55;54.35;;;20.98;;
11287;SDS011;5700;50.996;7.044;2023-03-04T02:16:58;59.58;;;21.38;;
11287;SDS011;5700;50.996;7.044;2023-03-04T02:20:01;60.28;;;21.65;;
11287;SDS011;5700;50.996;7.044;2023-03-04T02:23:06;57.20;;;20.92;;
11287;SDS011;5700;50.996;7.044;2023-03-04T02:26:13;52.05;;;20.73;;
11287;SDS011;5700;50.996;7.044;2023-03-04T02:29:15;63.67;;;21.65;;
11287;SDS011;5700;50.996;7.044;2023-03-04T02:32:17;57.95;;;22.92;;
11287;SDS011;5700;50.996;7.044;2023-03-04T02:35:19;60.40;;;23.63;;
11287;SDS011;5700;50.996;7.044;2023-03-04T02:38:21;61.75;;;23.00;;
11287;SDS011;5700;50.996;7.044;2023-03-04T02:41:24;59.17;;;22.98;;
11287;SDS011;5700;50.996;7.044;2023-03-04T02:44:27;59.45;;;21.65;;
11287;SDS011;5700;50.996;7.044;2023-03-04T02:47:29;64.20;;;23.55;;
11287;SDS011;5700;50.996;7.044;2023-03-04T02:50:32;56.97;;;21.45;;
11287;SDS011;5700;50.996;7.044;2023-03-04T02:53:35;58.22;;;22.35;;
11287;SDS011;5700;50.996;7.044;2023-03-04T02:56:38;59.95;;;22.50;;
11287;SDS011;5700;50.996;7.044;2023-03-04T02:59:39;58.72;;;21.80;;
11287;SDS011;5700;50.996;7.044;2023-03-04T03:02:41;56.42;;;22.75;;
11287;SDS011;5700;50.996;7.044;2023-03-04T03:05:42;53.22;;;21.35;;
11287;SDS011;5700;50.996;7.044;2023-03-04T03:08:44;55.90;;;21.35;;
11287;SDS011;5700;50.996;7.044;2023-03-04T03:11:46;59.00;;;21.58;;
11287;SDS011;5700;50.996;7.044;2023-03-04T03:14:48;57.55;;;22.05;;
11287;SDS011;5700;50.996;7.044;2023-03-04T03:17:49;58.28;;;20.88;;
11287;SDS011;5700;50.996;7.044;2023-03-04T03:20:51;58.83;;;22.75;;
11287;SDS011;5700;50.996;7.044;2023-03-04T03:23:53;51.75;;;20.33;;
11287;SDS011;5700;50.996;7.044;2023-03-04T03:26:55;60.25;;;23.50;;
11287;SDS011;5700;50.996;7.044;2023-03-04T03:29:57;58.50;;;21.08;;
11287;SDS011;5700;50.996;7.044;2023-03-04T03:32:58;52.97;;;22.10;;
11287;SDS011;5700;50.996;7.044;2023-03-04T03:35:59;59.35;;;23.60;;
11287;SDS011;5700;50.996;7.044;2023-03-04T03:39:01;61.17;;;22.77;;
11287;SDS011;5700;50.996;7.044;2023-03-04T03:42:04;55.15;;;22.13;;
11287;SDS011;5700;50.996;7.044;2023-03-04T03:45:06;58.60;;;22.85;;
11287;SDS011;5700;50.996;7.044;2023-03-04T03:48:07;56.13;;;21.90;;
11287;SDS011;5700;50.996;7.044;2023-03-04T03:51:09;61.83;;;23.10;;
11287;SDS011;5700;50.996;7.044;2023-03-04T03:54:10;57.30;;;21.55;;
11287;SDS011;5700;50.996;7.044;2023-03-04T03:57:13;60.45;;;23.02;;
11287;SDS011;5700;50.996;7.044;2023-03-04T04:00:15;54.13;;;21.75;;
11287;SDS011;5700;50.996;7.044;2023-03-04T04:03:16;60.45;;;21.73;;
11287;SDS011;5700;50.996;7.044;2023-03-04T04:06:18;58.47;;;21.95;;
11287;SDS011;5700;50.996;7.044;2023-03-04T04:09:20;48.40;;;21.02;;
11287;SDS011;5700;50.996;7.044;2023-03-04T04:12:22;60.10;;;21.65;;
11287;SDS011;5700;50.996;7.044;2023-03-04T04:15:24;52.88;;;22.00;;
11287;SDS011;5700;50.996;7.044;2023-03-04T04:18:25;61.67;;;23.10;;
11287;SDS011;5700;50.996;7.044;2023-03-04T04:21:27;63.70;;;23.52;;
11287;SDS011;5700;50.996;7.044;2023-03-04T04:24:28;64.45;;;23.70;;
11287;SDS011;5700;50.996;7.044;2023-03-04T04:27:31;56.85;;;23.25;;
11287;SDS011;5700;50.996;7.044;2023-03-04T04:30:32;63.47;;;23.10;;
11287;SDS011;5700;50.996;7.044;2023-03-04T04:33:34;52.30;;;21.23;;
11287;SDS011;5700;50.996;7.044;2023-03-04T04:36:36;64.68;;;22.58;;
11287;SDS011;5700;50.996;7.044;2023-03-04T04:39:38;66.95;;;23.73;;
11287;SDS011;5700;50.996;7.044;2023-03-04T04:42:40;57.72;;;21.63;;
11287;SDS011;5700;50.996;7.044;2023-03-04T04:45:42;60.45;;;22.52;;
11287;SDS011;5700;50.996;7.044;2023-03-04T04:48:43;61.33;;;22.15;;
11287;SDS011;5700;50.996;7.044;2023-03-04T04:51:44;62.63;;;21.58;;
11287;SDS011;5700;50.996;7.044;2023-03-04T04:54:46;55.38;;;21.00;;
11287;SDS011;5700;50.996;7.044;2023-03-04T04:57:49;56.50;;;20.63;;
11287;SDS011;5700;50.996;7.044;2023-03-04T05:00:50;51.15;;;20.05;;
11287;SDS011;5700;50.996;7.044;2023-03-04T05:03:52;54.17;;;21.23;;
11287;SDS011;5700;50.996;7.044;2023-03-04T05:06:54;52.45;;;20.20;;
11287;SDS011;5700;50.996;7.044;2023-03-04T05:09:55;50.88;;;21.13;;
11287;SDS011;5700;50.996;7.044;2023-03-04T05:12:58;54.65;;;20.38;;
11287;SDS011;5700;50.996;7.044;2023-03-04T05:16:00;54.28;;;20.00;;
11287;SDS011;5700;50.996;7.044;2023-03-04T05:19:01;55.47;;;20.80;;
11287;SDS011;5700;50.996;7.044;2023-03-04T05:22:03;55.13;;;20.95;;
11287;SDS011;5700;50.996;7.044;2023-03-04T05:25:04;50.58;;;21.17;;
11287;SDS011;5700;50.996;7.044;2023-03-04T05:28:08;50.55;;;20.02;;
11287;SDS011;5700;50.996;7.044;2023-03-04T05:31:11;55.55;;;21.60;;
11287;SDS011;5700;50.996;7.044;2023-03-04T05:34:12;61.50;;;23.95;;
11287;SDS011;5700;50.996;7.044;2023-03-04T05:37:14;52.65;;;19.15;;
11287;SDS011;5700;50.996;7.044;2023-03-04T05:40:15;54.35;;;19.58;;
11287;SDS011;5700;50.996;7.044;2023-03-04T05:43:18;54.35;;;19.83;;
11287;SDS011;5700;50.996;7.044;2023-03-04T05:46:21;54.13;;;21.42;;
11287;SDS011;5700;50.996;7.044;2023-03-04T05:49:24;55.25;;;22.55;;
11287;SDS011;5700;50.996;7.044;2023-03-04T05:52:26;51.45;;;20.23;;
11287;SDS011;5700;50.996;7.044;2023-03-04T05:55:27;50.78;;;19.73;;
11287;SDS011;5700;50.996;7.044;2023-03-04T05:58:30;58.53;;;21.27;;
11287;SDS011;5700;50.996;7.044;2023-03-04T06:01:32;48.60;;;20.55;;
11287;SDS011;5700;50.996;7.044;2023-03-04T06:04:33;51.40;;;19.83;;
11287;SDS011;5700;50.996;7.044;2023-03-04T06:07:35;61.03;;;23.30;;
11287;SDS011;5700;50.996;7.044;2023-03-04T06:10:36;41.63;;;18.42;;
11287;SDS011;5700;50.996;7.044;2023-03-04T06:13:39;52.42;;;21.90;;
11287;SDS011;5700;50.996;7.044;2023-03-04T06:16:41;47.05;;;20.25;;
11287;SDS011;5700;50.996;7.044;2023-03-04T06:19:42;51.72;;;20.27;;
11287;SDS011;5700;50.996;7.044;2023-03-04T06:22:44;48.28;;;19.67;;
11287;SDS011;5700;50.996;7.044;2023-03-04T06:25:45;53.05;;;20.67;;
11287;SDS011;5700;50.996;7.044;2023-03-04T06:28:48;57.97;;;21.95;;
11287;SDS011;5700;50.996;7.044;2023-03-04T06:31:49;60.03;;;21.23;;
11287;SDS011;5700;50.996;7.044;2023-03-04T06:34:52;50.72;;;21.20;;
11287;SDS011;5700;50.996;7.044;2023-03-04T06:37:53;57.20;;;19.95;;
11287;SDS011;5700;50.996;7.044;2023-03-04T06:40:55;54.25;;;21.42;;
11287;SDS011;5700;50.996;7.044;2023-03-04T06:43:57;43.60;;;18.92;;
11287;SDS011;5700;50.996;7.044;2023-03-04T06:46:59;58.13;;;19.92;;
11287;SDS011;5700;50.996;7.044;2023-03-04T06:50:00;44.17;;;18.10;;
11287;SDS011;5700;50.996;7.044;2023-03-04T06:53:02;55.00;;;22.92;;
11287;SDS011;5700;50.996;7.044;2023-03-04T06:56:04;49.85;;;20.08;;
11287;SDS011;5700;50.996;7.044;2023-03-04T06:59:07;50.97;;;21.45;;
11287;SDS011;5700;50.996;7.044;2023-03-04T07:02:09;54.72;;;21.80;;
11287;SDS011;5700;50.996;7.044;2023-03-04T07:05:11;55.45;;;22.23;;
11287;SDS011;5700;50.996;7.044;2023-03-04T07:08:12;46.25;;;18.50;;
11287;SDS011;5700;50.996;7.044;2023-03-04T07:11:14;47.08;;;18.90;;
11287;SDS011;5700;50.996;7.044;2023-03-04T07:14:18;57.33;;;18.77;;
11287;SDS011;5700;50.996;7.044;2023-03-04T07:17:19;55.17;;;19.90;;
11287;SDS011;5700;50.996;7.044;2023-03-04T07:20:21;39.78;;;17.45;;
11287;SDS011;5700;50.996;7.044;2023-03-04T07:23:22;41.55;;;16.30;;
11287;SDS011;5700;50.996;7.044;2023-03-04T07:26:24;51.20;;;18.95;;
11287;SDS011;5700;50.996;7.044;2023-03-04T07:29:26;43.00;;;17.88;;
11287;SDS011;5700;50.996;7.044;2023-03-04T07:32:28;47.33;;;17.10;;
11287;SDS011;5700;50.996;7.044;2023-03-04T07:35:29;47.13;;;17.65;;
11287;SDS011;5700;50.996;7.044;2023-03-04T07:38:31;39.72;;;16.65;;
11287;SDS011;5700;50.996;7.044;2023-03-04T07:41:32;39.55;;;16.17;;
11287;SDS011;5700;50.996;7.044;2023-03-04T07:44:37;40.00;;;16.52;;
11287;SDS011;5700;50.996;7.044;2023-03-04T07:47:38;38.83;;;15.55;;
11287;SDS011;5700;50.996;7.044;2023-03-04T07:50:40;37.90;;;16.83;;
11287;SDS011;5700;50.996;7.044;2023-03-04T07:53:42;31.42;;;13.50;;
11287;SDS011;5700;50.996;7.044;2023-03-04T07:56:45;40.63;;;16.58;;
11287;SDS011;5700;50.996;7.044;2023-03-04T07:59:48;48.20;;;19.73;;
11287;SDS011;5700;50.996;7.044;2023-03-04T08:02:49;49.50;;;18.08;;
11287;SDS011;5700;50.996;7.044;2023-03-04T08:05:51;52.00;;;19.00;;
11287;SDS011;5700;50.996;7.044;2023-03-04T08:08:54;50.65;;;18.48;;
11287;SDS011;5700;50.996;7.044;2023-03-04T08:11:57;39.85;;;16.75;;
11287;SDS011;5700;50.996;7.044;2023-03-04T08:14:59;36.67;;;15.38;;
11287;SDS011;5700;50.996;7.044;2023-03-04T08:18:01;41.05;;;16.42;;
11287;SDS011;5700;50.996;7.044;2023-03-04T08:21:02;46.15;;;17.42;;
11287;SDS011;5700;50.996;7.044;2023-03-04T08:24:09;36.40;;;15.30;;
11287;SDS011;5700;50.996;7.044;2023-03-04T08:27:11;38.00;;;13.73;;
11287;SDS011;5700;50.996;7.044;2023-03-04T08:30:14;44.90;;;18.63;;
11287;SDS011;5700;50.996;7.044;2023-03-04T08:33:16;19.20;;;8.55;;
11287;SDS011;5700;50.996;7.044;2023-03-04T08:36:17;18.35;;;7.65;;
11287;SDS011;5700;50.996;7.044;2023-03-04T08:39:19;16.52;;;6.03;;
11287;SDS011;5700;50.996;7.044;2023-03-04T08:42:20;21.20;;;8.05;;
11287;SDS011;5700;50.996;7.044;2023-03-04T08:45:24;16.05;;;4.38;;
11287;SDS011;5700;50.996;7.044;2023-03-04T08:48:25;6.15;;;2.63;;
11287;SDS011;5700;50.996;7.044;2023-03-04T08:51:27;8.65;;;3.33;;
11287;SDS011;5700;50.996;7.044;2023-03-04T08:54:28;5.82;;;2.60;;
11287;SDS011;5700;50.996;7.044;2023-03-04T08:57:30;9.45;;;2.80;;
11287;SDS011;5700;50.996;7.044;2023-03-04T09:00:33;11.43;;;2.83;;
11287;SDS011;5700;50.996;7.044;2023-03-04T09:03:35;7.30;;;2.45;;
11287;SDS011;5700;50.996;7.044;2023-03-04T09:06:36;6.90;;;2.42;;
11287;SDS011;5700;50.996;7.044;2023-03-04T09:09:38;5.80;;;2.60;;
11287;SDS011;5700;50.996;7.044;2023-03-04T09:12:39;7.25;;;2.60;;
11287;SDS011;5700;50.996;7.044;2023-03-04T09:15:44;7.05;;;2.88;;
11287;SDS011;5700;50.996;7.044;2023-03-04T09:18:45;9.73;;;2.97;;
11287;SDS011;5700;50.996;7.044;2023-03-04T09:21:47;7.97;;;3.10;;
11287;SDS011;5700;50.996;7.044;2023-03-04T09:24:48;7.63;;;2.80;;
11287;SDS011;5700;50.996;7.044;2023-03-04T09:27:50;4.93;;;2.25;;
11287;SDS011;5700;50.996;7.044;2023-03-04T09:30:52;9.45;;;2.70;;
11287;SDS011;5700;50.996;7.044;2023-03-04T09:33:54;10.27;;;4.57;;
11287;SDS011;5700;50.996;7.044;2023-03-04T09:36:57;12.50;;;4.55;;
11287;SDS011;5700;50.996;7.044;2023-03-04T09:39:58;10.65;;;4.05;;
11287;SDS011;5700;50.996;7.044;2023-03-04T09:43:00;11.02;;;3.47;;
11287;SDS011;5700;50.996;7.044;2023-03-04T09:46:06;13.23;;;4.97;;
11287;SDS011;5700;50.996;7.044;2023-03-04T09:49:08;14.20;;;4.60;;
11287;SDS011;5700;50.996;7.044;2023-03-04T09:52:13;8.50;;;4.18;;
11287;SDS011;5700;50.996;7.044;2023-03-04T09:55:20;9.25;;;3.80;;
11287;SDS011;5700;50.996;7.044;2023-03-04T09:58:26;12.93;;;3.92;;
11287;SDS011;5700;50.996;7.044;2023-03-04T10:01:37;9.05;;;3.28;;
11287;SDS011;5700;50.996;7.044;2023-03-04T10:04:43;8.05;;;3.28;;
11287;SDS011;5700;50.996;7.044;2023-03-04T10:07:51;9.95;;;4.63;;
11287;SDS011;5700;50.996;7.044;2023-03-04T10:10:57;17.02;;;5.32;;
11287;SDS011;5700;50.996;7.044;2023-03-04T10:14:02;12.60;;;4.15;;
11287;SDS011;5700;50.996;7.044;2023-03-04T10:17:12;12.73;;;4.93;;
11287;SDS011;5700;50.996;7.044;2023-03-04T10:20:17;15.23;;;6.55;;
11287;SDS011;5700;50.996;7.044;2023-03-04T10:23:23;11.30;;;6.03;;
11287;SDS011;5700;50.996;7.044;2023-03-04T10:26:28;10.77;;;5.03;;
11287;SDS011;5700;50.996;7.044;2023-03-04T10:29:32;12.32;;;4.88;;
11287;SDS011;5700;50.996;7.044;2023-03-04T10:32:35;12.45;;;4.18;;
11287;SDS011;5700;50.996;7.044;2023-03-04T10:35:36;7.03;;;3.40;;
11287;SDS011;5700;50.996;7.044;2023-03-04T10:38:39;7.25;;;3.35;;
11287;SDS011;5700;50.996;7.044;2023-03-04T10:41:42;7.60;;;3.13;;
11287;SDS011;5700;50.996;7.044;2023-03-04T10:44:50;6.53;;;2.80;;
11287;SDS011;5700;50.996;7.044;2023-03-04T10:47:54;5.20;;;2.55;;
11287;SDS011;5700;50.996;7.044;2023-03-04T10:51:09;6.70;;;3.10;;
11287;SDS011;5700;50.996;7.044;2023-03-04T10:54:18;6.63;;;2.97;;
11287;SDS011;5700;50.996;7.044;2023-03-04T10:57:23;5.88;;;2.85;;
11287;SDS011;5700;50.996;7.044;2023-03-04T11:00:28;6.32;;;3.00;;
11287;SDS011;5700;50.996;7.044;2023-03-04T11:03:34;8.05;;;2.95;;
11287;SDS011;5700;50.996;7.044;2023-03-04T11:06:38;6.53;;;2.40;;
11287;SDS011;5700;50.996;7.044;2023-03-04T11:09:42;5.65;;;2.50;;
11287;SDS011;5700;50.996;7.044;2023-03-04T11:12:48;5.53;;;2.40;;
11287;SDS011;5700;50.996;7.044;2023-03-04T11:15:51;7.55;;;3.20;;
11287;SDS011;5700;50.996;7.044;2023-03-04T11:18:55;7.15;;;2.97;;
11287;SDS011;5700;50.996;7.044;2023-03-04T11:21:59;6.95;;;3.40;;
11287;SDS011;5700;50.996;7.044;2023-03-04T11:25:02;5.78;;;2.70;;
11287;SDS011;5700;50.996;7.044;2023-03-04T11:28:10;6.15;;;2.65;;
11287;SDS011;5700;50.996;7.044;2023-03-04T11:31:16;6.93;;;2.42;;
11287;SDS011;5700;50.996;7.044;2023-03-04T11:34:27;9.45;;;3.50;;
11287;SDS011;5700;50.996;7.044;2023-03-04T11:37:32;8.18;;;3.65;;
11287;SDS011;5700;50.996;7.044;2023-03-04T11:40:38;6.90;;;3.38;;
11287;SDS011;5700;50.996;7.044;2023-03-04T11:43:42;4.50;;;2.65;;
11287;SDS011;5700;50.996;7.044;2023-03-04T11:46:49;6.95;;;3.60;;
11287;SDS011;5700;50.996;7.044;2023-03-04T11:49:59;6.35;;;2.90;;
11287;SDS011;5700;50.996;7.044;2023-03-04T11:53:14;6.88;;;3.13;;
11287;SDS011;5700;50.996;7.044;2023-03-04T11:56:33;9.77;;;3.33;;
11287;SDS011;5700;50.996;7.044;2023-03-04T11:59:39;5.03;;;2.28;;
11287;SDS011;5700;50.996;7.044;2023-03-04T12:02:50;7.00;;;2.90;;
11287;SDS011;5700;50.996;7.044;2023-03-04T12:06:05;4.80;;;2.90;;
11287;SDS011;5700;50.996;7.044;2023-03-04T12:09:14;6.07;;;2.90;;
11287;SDS011;5700;50.996;7.044;2023-03-04T12:12:26;4.45;;;1.75;;
11287;SDS011;5700;50.996;7.044;2023-03-04T12:15:36;6.30;;;2.13;;
11287;SDS011;5700;50.996;7.044;2023-03-04T12:18:45;5.53;;;2.20;;
11287;SDS011;5700;50.996;7.044;2023-03-04T12:21:58;4.60;;;2.28;;
11287;SDS011;5700;50.996;7.044;2023-03-04T12:25:09;4.65;;;1.70;;
11287;SDS011;5700;50.996;7.044;2023-03-04T12:28:30;10.63;;;2.67;;
11287;SDS011;5700;50.996;7.044;2023-03-04T12:31:40;4.43;;;1.65;;
11287;SDS011;5700;50.996;7.044;2023-03-04T12:34:45;4.78;;;2.13;;
11287;SDS011;5700;50.996;7.044;2023-03-04T12:37:59;4.35;;;1.48;;
11287;SDS011;5700;50.996;7.044;2023-03-04T12:41:12;4.30;;;1.67;;
11287;SDS011;5700;50.996;7.044;2023-03-04T12:44:21;4.57;;;1.40;;
11287;SDS011;5700;50.996;7.044;2023-03-04T12:47:26;3.72;;;1.45;;
11287;SDS011;5700;50.996;7.044;2023-03-04T12:50:35;2.65;;;1.30;;
11287;SDS011;5700;50.996;7.044;2023-03-04T12:53:42;5.78;;;1.65;;
11287;SDS011;5700;50.996;7.044;2023-03-04T12:56:50;2.30;;;1.10;;
11287;SDS011;5700;50.996;7.044;2023-03-04T12:59:55;2.00;;;1.27;;
11287;SDS011;5700;50.996;7.044;2023-03-04T13:03:02;3.85;;;1.33;;
11287;SDS011;5700;50.996;7.044;2023-03-04T13:06:12;5.75;;;1.80;;
11287;SDS011;5700;50.996;7.044;2023-03-04T13:09:20;1.55;;;1.20;;
11287;SDS011;5700;50.996;7.044;2023-03-04T13:12:26;3.95;;;1.48;;
11287;SDS011;5700;50.996;7.044;2023-03-04T13:15:30;2.10;;;1.55;;
11287;SDS011;5700;50.996;7.044;2023-03-04T13:18:34;3.97;;;1.35;;
11287;SDS011;5700;50.996;7.044;2023-03-04T13:21:43;5.60;;;1.83;;
11287;SDS011;5700;50.996;7.044;2023-03-04T13:24:51;6.35;;;1.95;;
11287;SDS011;5700;50.996;7.044;2023-03-04T13:31:16;2.80;;;1.58;;
11287;SDS011;5700;50.996;7.044;2023-03-04T13:37:55;4.32;;;1.00;;
11287;SDS011;5700;50.996;7.044;2023-03-04T13:47:39;2.45;;;1.20;;
11287;SDS011;5700;50.996;7.044;2023-03-04T13:50:44;2.95;;;1.38;;
11287;SDS011;5700;50.996;7.044;2023-03-04T13:53:48;3.65;;;1.35;;
11287;SDS011;5700;50.996;7.044;2023-03-04T14:00:16;3.72;;;1.52;;
11287;SDS011;5700;50.996;7.044;2023-03-04T14:03:20;3.65;;;1.58;;
11287;SDS011;5700;50.996;7.044;2023-03-04T14:06:24;2.55;;;1.45;;
11287;SDS011;5700;50.996;7.044;2023-03-04T14:09:27;6.63;;;1.58;;
11287;SDS011;5700;50.996;7.044;2023-03-04T14:12:31;3.83;;;1.50;;
11287;SDS011;5700;50.996;7.044;2023-03-04T14:15:35;3.58;;;1.70;;
11287;SDS011;5700;50.996;7.044;2023-03-04T14:18:37;3.28;;;1.40;;
11287;SDS011;5700;50.996;7.044;2023-03-04T14:21:42;4.32;;;1.65;;
11287;SDS011;5700;50.996;7.044;2023-03-04T14:24:54;3.70;;;1.63;;
11287;SDS011;5700;50.996;7.044;2023-03-04T14:28:08;3.28;;;1.27;;
11287;SDS011;5700;50.996;7.044;2023-03-04T14:31:14;2.88;;;1.08;;
11287;SDS011;5700;50.996;7.044;2023-03-04T14:34:19;5.78;;;0.90;;
11287;SDS011;5700;50.996;7.044;2023-03-04T14:37:25;4.07;;;1.30;;
11287;SDS011;5700;50.996;7.044;2023-03-04T14:40:28;2.55;;;1.02;;
11287;SDS011;5700;50.996;7.044;2023-03-04T14:43:32;2.05;;;1.13;;
11287;SDS011;5700;50.996;7.044;2023-03-04T14:46:38;2.90;;;1.08;;
11287;SDS011;5700;50.996;7.044;2023-03-04T14:49:41;4.47;;;1.42;;
11287;SDS011;5700;50.996;7.044;2023-03-04T14:52:43;4.18;;;1.75;;
11287;SDS011;5700;50.996;7.044;2023-03-04T14:59:04;5.82;;;1.90;;
11287;SDS011;5700;50.996;7.044;2023-03-04T15:02:07;2.95;;;1.38;;
11287;SDS011;5700;50.996;7.044;2023-03-04T15:05:18;4.25;;;1.88;;
11287;SDS011;5700;50.996;7.044;2023-03-04T15:08:21;2.50;;;1.70;;
11287;SDS011;5700;50.996;7.044;2023-03-04T15:11:25;5.85;;;2.40;;
11287;SDS011;5700;50.996;7.044;2023-03-04T15:17:55;3.75;;;1.90;;
11287;SDS011;5700;50.996;7.044;2023-03-04T15:20:58;9.32;;;4.82;;
11287;SDS011;5700;50.996;7.044;2023-03-04T15:24:01;5.32;;;1.50;;
11287;SDS011;5700;50.996;7.044;2023-03-04T15:27:03;4.45;;;1.55;;
11287;SDS011;5700;50.996;7.044;2023-03-04T15:30:12;4.50;;;2.05;;
11287;SDS011;5700;50.996;7.044;2023-03-04T15:33:16;4.43;;;1.85;;
11287;SDS011;5700;50.996;7.044;2023-03-04T15:36:18;4.13;;;1.90;;
11287;SDS011;5700;50.996;7.044;2023-03-04T15:39:21;4.38;;;2.00;;
11287;SDS011;5700;50.996;7.044;2023-03-04T15:42:22;3.03;;;2.00;;
11287;SDS011;5700;50.996;7.044;2023-03-04T15:45:27;5.68;;;2.30;;
11287;SDS011;5700;50.996;7.044;2023-03-04T15:48:29;4.28;;;2.20;;
11287;SDS011;5700;50.996;7.044;2023-03-04T15:51:31;4.15;;;1.85;;
11287;SDS011;5700;50.996;7.044;2023-03-04T15:54:32;3.25;;;1.98;;
11287;SDS011;5700;50.996;7.044;2023-03-04T15:57:34;3.20;;;1.70;;
11287;SDS011;5700;50.996;7.044;2023-03-04T16:00:36;3.20;;;1.65;;
11287;SDS011;5700;50.996;7.044;2023-03-04T16:03:38;4.95;;;1.52;;
11287;SDS011;5700;50.996;7.044;2023-03-04T16:06:40;3.03;;;1.60;;
11287;SDS011;5700;50.996;7.044;2023-03-04T16:09:43;3.75;;;1.70;;
11287;SDS011;5700;50.996;7.044;2023-03-04T16:12:45;4.63;;;2.30;;
11287;SDS011;5700;50.996;7.044;2023-03-04T16:15:48;3.38;;;2.08;;
11287;SDS011;5700;50.996;7.044;2023-03-04T16:18:49;5.30;;;2.47;;
11287;SDS011;5700;50.996;7.044;2023-03-04T16:21:51;3.63;;;1.83;;
11287;SDS011;5700;50.996;7.044;2023-03-04T16:24:52;3.17;;;1.80;;
11287;SDS011;5700;50.996;7.044;2023-03-04T16:27:54;3.85;;;1.75;;
11287;SDS011;5700;50.996;7.044;2023-03-04T16:30:59;5.65;;;2.20;;
11287;SDS011;5700;50.996;7.044;2023-03-04T16:34:00;3.55;;;1.80;;
11287;SDS011;5700;50.996;7.044;2023-03-04T16:37:02;7.15;;;2.03;;
11287;SDS011;5700;50.996;7.044;2023-03-04T16:40:06;7.47;;;2.85;;
11287;SDS011;5700;50.996;7.044;2023-03-04T16:43:11;5.47;;;2.28;;
11287;SDS011;5700;50.996;7.044;2023-03-04T16:46:14;4.15;;;1.98;;
11287;SDS011;5700;50.996;7.044;2023-03-04T16:49:15;4.25;;;1.92;;
11287;SDS011;5700;50.996;7.044;2023-03-04T16:52:19;4.53;;;2.15;;
11287;SDS011;5700;50.996;7.044;2023-03-04T16:55:25;2.88;;;2.00;;
11287;SDS011;5700;50.996;7.044;2023-03-04T16:58:27;5.90;;;2.70;;
11287;SDS011;5700;50.996;7.044;2023-03-04T17:01:30;5.47;;;2.17;;
11287;SDS011;5700;50.996;7.044;2023-03-04T17:04:32;5.57;;;2.28;;
11287;SDS011;5700;50.996;7.044;2023-03-04T17:07:34;4.97;;;2.72;;
11287;SDS011;5700;50.996;7.044;2023-03-04T17:10:35;6.60;;;2.97;;
11287;SDS011;5700;50.996;7.044;2023-03-04T17:13:37;8.93;;;3.63;;
11287;SDS011;5700;50.996;7.044;2023-03-04T17:16:39;8.02;;;4.13;;
11287;SDS011;5700;50.996;7.044;2023-03-04T17:19:41;7.68;;;3.30;;
11287;SDS011;5700;50.996;7.044;2023-03-04T17:22:42;11.18;;;4.50;;
11287;SDS011;5700;50.996;7.044;2023-03-04T17:25:44;11.30;;;3.70;;
11287;SDS011;5700;50.996;7.044;2023-03-04T17:28:45;7.90;;;3.72;;
11287;SDS011;5700;50.996;7.044;2023-03-04T17:31:48;11.30;;;4.07;;
11287;SDS011;5700;50.996;7.044;2023-03-04T17:34:52;12.50;;;4.32;;
11287;SDS011;5700;50.996;7.044;2023-03-04T17:37:53;8.95;;;3.97;;
11287;SDS011;5700;50.996;7.044;2023-03-04T17:40:55;9.20;;;4.03;;
11287;SDS011;5700;50.996;7.044;2023-03-04T17:44:02;8.95;;;3.22;;
11287;SDS011;5700;50.996;7.044;2023-03-04T17:47:06;11.13;;;3.90;;
11287;SDS011;5700;50.996;7.044;2023-03-04T17:50:08;9.65;;;3.50;;
11287;SDS011;5700;50.996;7.044;2023-03-04T17:53:10;11.50;;;3.47;;
11287;SDS011;5700;50.996;7.044;2023-03-04T17:56:11;7.43;;;2.97;;
11287;SDS011;5700;50.996;7.044;2023-03-04T17:59:13;14.45;;;4.05;;
11287;SDS011;5700;50.996;7.044;2023-03-04T18:02:17;7.25;;;3.05;;
11287;SDS011;5700;50.996;7.044;2023-03-04T18:05:18;10.95;;;3.13;;
11287;SDS011;5700;50.996;7.044;2023-03-04T18:08:20;6.10;;;2.83;;
11287;SDS011;5700;50.996;7.044;2023-03-04T18:11:22;7.38;;;2.92;;
11287;SDS011;5700;50.996;7.044;2023-03-04T18:14:24;8.20;;;3.38;;
11287;SDS011;5700;50.996;7.044;2023-03-04T18:17:27;11.38;;;3.75;;
11287;SDS011;5700;50.996;7.044;2023-03-04T18:20:28;8.68;;;3.17;;
11287;SDS011;5700;50.996;7.044;2023-03-04T18:23:30;8.88;;;3.53;;
11287;SDS011;5700;50.996;7.044;2023-03-04T18:26:32;9.20;;;2.95;;
11287;SDS011;5700;50.996;7.044;2023-03-04T18:29:33;7.90;;;3.42;;
11287;SDS011;5700;50.996;7.044;2023-03-04T18:32:36;8.00;;;2.90;;
11287;SDS011;5700;50.996;7.044;2023-03-04T18:35:40;7.97;;;3.22;;
11287;SDS011;5700;50.996;7.044;2023-03-04T18:38:41;9.85;;;4.07;;
11287;SDS011;5700;50.996;7.044;2023-03-04T18:41:43;9.85;;;3.55;;
11287;SDS011;5700;50.996;7.044;2023-03-04T18:44:44;14.02;;;3.38;;
11287;SDS011;5700;50.996;7.044;2023-03-04T18:47:47;9.10;;;3.25;;